Terminal Aerodrome Forecast
Issued by NWS

Current Version | Previous Version | Text Only | Print | Product List | Glossary On
Versions: 1 2 3 4 5 6 7 8 9 10 11 12 13 14 15 16 17 18 19
000
FTUS42 KMLB 281132
TAFSFB
TAF
KSFB 281132Z 2812/2912 VRB03KT P6SM VCSH FEW025 BKN100 OVC140
     FM281500 12006KT P6SM -RA SCT025 SCT050 BKN080
     FM281800 13008KT 6SM -RA BR BKN025 OVC050
      TEMPO 2818/2822 3SM SHRA BR BKN015 OVC025
     FM290000 15004KT 6SM -RA BR OVC015
      TEMPO 2900/2904 3SM SHRA BR OVC008
     FM290600 16004KT P6SM VCSH BKN025=

USA.gov is the U.S. government's official web portal to all federal, state and local government web resources and services.